Latest Weather Observations for Low Rocky Point

IDT60801

Issued at 11:31 am EST Wednesday 25 May 2016 (issued every 30 minutes, with the page automatically refreshed every 10 minutes)

About weather observations | Map of weather stations | Latest weather observations for TAS | Other Formats
Station Details ID: 097080 Name: LOW ROCKY POINT Lat: -42.98 Lon: 145.50 Height: 34.0 m
Data from the previous 72 hours. | See also: Recent months at Low Rocky Point
Date/Time
EST
Temp
°C
App
Temp
°C
Dew
Point
Rel
Hum
%
Delta-T
°C
Wind Press
QNH
hPa
Press
MSL
hPa
Rain
since 9 am
mm
Dir
 
Spd
km/h
Gust
km/h
Spd
kts
Gust
kts
25/11:30am 11.9 7.4 8.7 81 1.6 NNE 22 30 12 16 1007.1 1007.1 0.0
25/11:00am 11.0 6.0 8.2 83 1.4 NNE 24 32 13 17 1008.1 1008.2 0.0
25/10:30am 10.0 4.9 7.6 85 1.1 NNE 24 30 13 16 1008.6 1008.7 0.0
25/10:00am 9.1 3.4 6.7 85 1.1 NNE 26 33 14 18 1009.2 1009.2 0.0
25/09:30am 8.3 2.9 6.3 87 0.9 NNE 24 32 13 17 1009.5 1009.6 0.0
25/09:00am 7.8 2.3 5.9 88 0.9 NNE 24 33 13 18 1010.3 1010.3 0.8
25/08:30am 7.4 1.9 5.7 89 0.8 NNE 24 33 13 18 1010.8 1010.9 0.8
25/08:00am 6.8 0.8 5.1 89 0.7 NNE 26 32 14 17 1010.8 1010.8 0.8
25/07:30am 6.9 1.3 5.2 89 0.8 NNE 24 32 13 17 1011.2 1011.3 0.8
25/07:00am 6.5 0.4 4.8 89 0.7 NNE 26 32 14 17 1011.6 1011.6 0.8
25/06:30am 6.2 0.5 4.7 90 0.7 NNE 24 30 13 16 1011.7 1011.8 0.8
25/06:00am 6.2 0.4 4.5 89 0.7 NNE 24 32 13 17 1011.8 1011.8 0.8
25/05:30am 6.3 0.9 4.6 89 0.7 NNE 22 30 12 16 1011.8 1011.9 0.8
25/05:00am 6.3 0.5 4.6 89 0.7 NNE 24 32 13 17 1012.3 1012.3 0.8
25/04:30am 5.9 0.5 4.4 90 0.6 NNE 22 26 12 14 1012.5 1012.6 0.8
25/04:00am 5.9 1.1 4.4 90 0.6 NNE 19 24 10 13 1012.9 1012.9 0.8
25/03:30am 6.2 1.2 4.5 89 0.7 NNE 20 26 11 14 1013.5 1013.6 0.8
25/03:00am 5.6 0.5 4.1 90 0.6 NNE 20 26 11 14 1013.4 1013.4 0.8
25/02:30am 5.4 0.2 3.7 89 0.7 NNE 20 24 11 13 1013.7 1013.8 0.8
25/02:00am 5.3 0.1 3.6 89 0.7 NNE 20 24 11 13 1013.9 1013.9 0.8
25/01:30am 5.6 0.5 3.9 89 0.7 NNE 20 24 11 13 1014.1 1014.2 0.8
25/01:00am 5.4 0.5 3.9 90 0.6 NNE 19 22 10 12 1014.5 1014.5 0.8
25/12:30am 5.2 0.0 3.7 90 0.6 NNE 20 24 11 13 1015.0 1015.1 0.8
25/12:00am 5.1 -0.1 3.3 88 0.7 NNE 20 24 11 13 1015.2 1015.2 0.8
 
Date/Time
EST
Temp
°C
App
Temp
°C
Dew
Point
Rel
Hum
%
Delta-T
°C
Wind Press
QNH
hPa
Press
MSL
hPa
Rain
since 9 am
mm
Dir
 
Spd
km/h
Gust
km/h
Spd
kts
Gust
kts
24/11:30pm 5.1 -0.2 3.0 86 0.9 NNE 20 24 11 13 1015.6 1015.6 0.8
24/11:00pm 5.8 1.1 3.1 83 1.1 N 17 20 9 11 1016.0 1015.9 0.8
24/10:30pm 6.1 1.4 2.9 80 1.3 N 17 17 9 9 1016.1 1016.1 0.8
24/10:00pm 6.7 3.1 3.1 78 1.5 N 11 15 6 8 1016.3 1016.2 0.8
24/09:30pm 7.6 4.9 3.5 75 1.7 N 7 9 4 5 1016.5 1016.5 0.8
24/09:00pm 8.9 5.9 3.9 71 2.2 W 9 13 5 7 1016.8 1016.8 0.8
24/08:30pm 9.6 6.2 4.0 68 2.5 WSW 11 15 6 8 1017.0 1017.0 0.8
24/08:00pm 9.3 6.0 4.3 71 2.2 W 11 15 6 8 1017.1 1017.1 0.8
24/07:30pm 8.7 5.7 3.9 72 2.1 WSW 9 15 5 8 1016.9 1016.9 0.8
24/07:00pm 8.4 4.9 3.3 70 2.2 SW 11 15 6 8 1016.8 1016.8 0.8
24/06:30pm 8.4 5.2 3.3 70 2.2 SW 9 15 5 8 1016.6 1016.6 0.8
24/06:00pm 8.6 5.4 3.2 69 2.3 SW 9 13 5 7 1016.6 1016.6 0.8
24/05:30pm 8.9 5.4 3.7 70 2.3 SW 11 15 6 8 1016.5 1016.5 0.8
24/05:00pm 9.0 5.6 4.0 71 2.2 SSW 11 15 6 8 1016.3 1016.2 0.8
24/04:30pm 10.0 5.9 4.4 68 2.5 SW 15 19 8 10 1016.5 1016.5 0.8
24/04:00pm 10.9 7.7 5.2 68 2.6 SSW 11 17 6 9 1016.4 1016.3 0.8
24/03:30pm 11.5 7.8 4.7 63 3.1 SSW 13 19 7 10 1016.3 1016.3 0.8
24/03:00pm 12.0 8.4 5.0 62 3.2 SSW 13 17 7 9 1016.1 1016.0 0.8
24/02:30pm 12.0 7.9 4.2 59 3.5 S 15 20 8 11 1015.9 1015.9 0.8
24/02:00pm 12.0 7.6 4.7 61 3.3 SSW 17 24 9 13 1016.0 1015.9 0.8
24/01:30pm 12.2 8.0 5.6 64 3.1 SSW 17 20 9 11 1016.0 1016.0 0.8
24/01:00pm 11.8 7.1 6.1 68 2.7 SSW 20 30 11 16 1016.1 1016.0 0.8
24/12:30pm 11.4 6.5 6.7 73 2.2 S 22 28 12 15 1016.2 1016.2 0.8
24/12:00pm 10.4 5.7 6.2 75 2.0 SSW 20 30 11 16 1016.3 1016.2 0.8
24/11:30am 11.7 7.9 7.4 75 2.1 SSW 17 24 9 13 1016.6 1016.6 0.8
24/11:00am 9.9 4.3 7.2 83 1.3 S 26 35 14 19 1016.7 1016.7 0.8
24/10:30am 9.5 5.2 7.9 90 0.8 SSW 20 30 11 16 1016.6 1016.6 0.8
24/10:00am 9.5 5.9 8.4 93 0.5 S 17 22 9 12 1016.5 1016.5 0.8
24/09:30am 9.2 5.9 8.0 92 0.6 SW 15 20 8 11 1016.4 1016.4 0.8
24/09:00am 9.7 5.4 7.8 88 0.9 SSW 20 32 11 17 1016.1 1016.0 15.4
24/08:30am 9.3 5.0 7.9 91 0.7 SW 20 37 11 20 1016.1 1016.1 15.4
24/08:00am 8.5 4.2 7.1 91 0.7 SSW 19 26 10 14 1015.4 1015.4 15.4
24/07:30am 8.6 3.9 7.8 95 0.4 SSW 22 35 12 19 1015.2 1015.3 15.4
24/07:00am 8.8 4.5 8.0 95 0.4 SSW 20 30 11 16 1014.7 1014.7 15.4
24/06:30am 8.8 3.8 8.0 95 0.4 S 24 32 13 17 1014.5 1014.6 15.0
24/06:00am 8.8 5.2 8.2 96 0.3 WSW 17 30 9 16 1014.2 1014.2 15.0
24/05:30am 7.7 4.2 7.0 95 0.3 NE 15 19 8 10 1013.7 1013.8 15.0
24/05:00am 7.5 4.6 6.4 93 0.5 ENE 11 20 6 11 1013.7 1013.7 14.8
24/04:30am 8.4 5.5 6.7 89 0.8 SSE 11 17 6 9 1013.5 1013.6 14.4
24/04:00am 9.0 5.5 7.1 88 0.9 WSW 15 20 8 11 1013.1 1013.1 14.4
24/03:30am 9.0 6.0 7.5 90 0.7 SW 13 17 7 9 1013.2 1013.3 14.4
24/03:00am 8.6 5.1 7.2 91 0.7 SW 15 19 8 10 1013.1 1013.1 14.4
24/02:30am 8.6 5.5 7.4 92 0.6 SW 13 17 7 9 1012.9 1013.0 14.4
24/02:00am 8.4 5.4 7.5 94 0.4 WSW 13 17 7 9 1012.7 1012.7 14.4
24/01:30am 8.5 1.8 7.4 93 0.5 W 32 37 17 20 1012.7 1012.8 14.2
24/01:00am 8.3 4.0 6.8 90 0.7 W 19 24 10 13 1012.5 1012.5 13.0
24/12:33am 9.3 4.7 6.6 83 1.3 WSW 20 46 11 25 1012.3 1012.4 10.6
24/12:30am 9.7 5.7 6.8 82 1.4 WSW 17 30 9 16 1012.1 1012.2 10.4
24/12:00am 9.8 6.2 6.9 82 1.4 WSW 15 20 8 11 1012.0 1012.0 10.2
 
Date/Time
EST
Temp
°C
App
Temp
°C
Dew
Point
Rel
Hum
%
Delta-T
°C
Wind Press
QNH
hPa
Press
MSL
hPa
Rain
since 9 am
mm
Dir
 
Spd
km/h
Gust
km/h
Spd
kts
Gust
kts
23/11:30pm 9.0 5.6 5.9 81 1.4 SW 13 17 7 9 1012.1 1012.2 10.2
23/11:00pm 10.9 6.3 6.5 74 2.1 W 20 28 11 15 1012.4 1012.4 10.0
23/10:30pm 10.6 5.5 6.0 73 2.1 WSW 22 32 12 17 1012.4 1012.5 10.0
23/10:00pm 10.9 4.2 5.7 70 2.4 WSW 30 39 16 21 1012.6 1012.6 10.0
23/09:30pm 10.7 3.4 5.3 69 2.5 WSW 33 43 18 23 1012.6 1012.7 10.0
23/09:00pm 10.5 4.1 5.3 70 2.4 WSW 28 35 15 19 1012.5 1012.5 10.0
23/08:30pm 10.8 3.6 5.1 68 2.6 WSW 32 43 17 23 1012.4 1012.5 10.0
23/08:17pm 10.7 3.5 5.0 68 2.6 WSW 32 50 17 27 1012.3 1012.4 10.0
23/08:00pm 10.7 2.9 5.0 68 2.6 WSW 35 44 19 24 1012.2 1012.2 10.0
23/07:30pm 10.9 3.2 5.4 69 2.5 WSW 35 52 19 28 1012.0 1012.1 10.0
23/07:15pm 10.6 2.4 4.5 66 2.7 WSW 37 56 20 30 1012.0 1012.1 10.0
23/07:00pm 10.6 1.3 2.9 59 3.3 WSW 41 54 22 29 1011.8 1011.8 10.0
23/06:30pm 10.6 1.7 5.2 69 2.5 WSW 41 59 22 32 1011.4 1011.5 10.0
23/06:15pm 10.5 0.7 5.1 69 2.5 WSW 46 65 25 35 1011.2 1011.3 10.0
23/06:00pm 10.6 0.4 5.2 69 2.5 WSW 48 61 26 33 1010.9 1010.9 10.0
23/05:31pm 10.5 1.3 5.5 71 2.3 WSW 43 69 23 37 1010.5 1010.6 10.0
23/05:30pm 10.5 1.6 5.3 70 2.4 WSW 41 54 22 29 1010.4 1010.5 10.0
23/05:00pm 10.5 1.3 5.5 71 2.3 WSW 43 59 23 32 1010.0 1010.0 10.0
23/04:30pm 10.5 2.3 6.5 76 1.9 WSW 39 54 21 29 1009.8 1009.9 10.0
23/04:00pm 10.6 1.6 6.6 76 1.9 WSW 43 61 23 33 1009.2 1009.2 10.0
23/03:34pm 9.7 2.5 7.6 87 1.0 WSW 35 54 19 29 1008.9 1009.0 10.0
23/03:30pm 9.5 2.7 7.6 88 0.9 WSW 33 50 18 27 1008.8 1008.9 10.0
23/03:21pm 9.4 -1.4 7.7 89 0.8 WSW 54 72 29 39 1008.8 1008.9 10.0
23/03:07pm 9.7 1.0 8.5 92 0.6 WSW 44 72 24 39 1008.2 1008.3 10.0
23/03:03pm 9.3 2.2 8.2 93 0.5 WSW 35 67 19 36 1008.1 1008.2 10.0
23/03:00pm 9.1 2.6 8.3 95 0.4 WSW 32 46 17 25 1008.2 1008.2 10.0
23/02:30pm 8.8 -0.9 7.6 92 0.6 WSW 48 82 26 44 1007.6 1007.7 9.0
23/02:26pm 9.5 0.8 8.3 92 0.6 WSW 44 65 24 35 1007.4 1007.5 9.0
23/02:11pm 8.9 0.0 7.8 93 0.5 W 44 61 24 33 1007.1 1007.1 8.6
23/02:00pm 8.4 -2.8 7.5 94 0.4 WSW 56 74 30 40 1007.4 1007.4 7.8
23/01:55pm 8.6 -3.9 7.7 94 0.4 W 63 82 34 44 1007.2 1007.3 7.6
23/01:46pm 8.7 -0.5 7.9 95 0.4 WSW 46 80 25 43 1006.8 1006.8 7.4
23/01:44pm 9.3 1.2 8.5 95 0.4 WSW 41 70 22 38 1006.9 1006.9 7.4
23/01:32pm 8.5 -2.3 7.7 95 0.4 WSW 54 82 29 44 1006.8 1006.8 6.6
23/01:30pm 8.4 -3.0 7.5 94 0.4 W 57 82 31 44 1006.8 1006.8 6.4
23/01:27pm 9.0 -0.9 8.2 95 0.4 W 50 82 27 44 1006.3 1006.3 5.8
23/01:24pm 9.4 1.3 8.6 95 0.4 WSW 41 69 22 37 1006.3 1006.3 5.6
23/01:00pm 9.2 2.5 8.3 94 0.4 WSW 33 54 18 29 1006.3 1006.3 5.4
23/12:48pm 9.8 2.8 8.6 92 0.6 W 35 67 19 36 1005.9 1005.9 3.4
23/12:30pm 10.1 2.8 8.9 92 0.6 W 37 44 20 24 1005.9 1005.9 3.0
23/12:00pm 10.5 3.0 9.3 92 0.6 W 39 48 21 26 1005.7 1005.7 2.6
23/11:30am 10.1 2.9 9.0 93 0.5 W 37 50 20 27 1005.8 1005.8 2.4
23/11:25am 10.2 1.7 9.1 93 0.5 W 44 57 24 31 1005.9 1005.9 2.2
23/11:00am 10.4 -0.5 8.7 89 0.8 W 56 67 30 36 1005.6 1005.6 2.0
23/10:30am 10.6 -1.1 9.5 93 0.6 W 61 72 33 39 1005.0 1005.0 2.0
23/10:20am 10.5 0.9 9.4 93 0.5 WNW 50 69 27 37 1004.8 1004.8 1.8
23/10:12am 10.5 4.6 9.1 91 0.7 W 30 52 16 28 1005.1 1005.1 1.8
23/10:00am 10.2 0.7 8.3 88 0.9 W 48 59 26 32 1004.9 1004.9 1.0
23/09:42am 11.9 6.4 9.1 83 1.4 WSW 28 46 15 25 1004.3 1004.3 0.0
23/09:30am 12.0 6.2 9.6 85 1.2 WSW 30 39 16 21 1004.1 1004.1 0.0
23/09:00am 11.9 7.3 11.0 94 0.5 W 26 35 14 19 1003.9 1003.9 9.8
23/08:30am 11.6 8.4 11.1 97 0.3 W 19 24 10 13 1003.8 1003.8 9.8
23/08:00am 10.6 7.1 10.1 97 0.3 WNW 19 22 10 12 1003.6 1003.6 9.8
23/07:30am 10.2 6.9 9.7 97 0.3 WNW 17 22 9 12 1003.4 1003.4 9.6
23/07:00am 10.8 6.1 10.6 99 0.1 W 26 33 14 18 1003.5 1003.5 8.6
23/06:30am 10.9 6.2 10.7 99 0.1 WNW 26 35 14 19 1003.2 1003.2 7.4
23/06:00am 11.4 8.0 11.2 99 0.1 NNW 20 28 11 15 1003.1 1003.1 4.8
23/05:30am 10.8 8.2 10.6 99 0.1 NNW 15 19 8 10 1003.1 1003.1 4.8
23/05:00am 11.2 7.9 11.0 99 0.1 NNW 19 26 10 14 1003.4 1003.4 4.6
23/04:30am 11.1 7.8 10.9 99 0.1 N 19 24 10 13 1003.6 1003.6 3.8
23/04:00am 11.5 9.1 11.3 99 0.1 N 15 20 8 11 1003.7 1003.7 3.4
23/03:30am 11.9 8.5 11.4 97 0.3 NNW 20 28 11 15 1004.0 1004.0 2.6
23/03:00am 12.1 6.9 11.6 97 0.3 NW 30 35 16 19 1004.0 1004.0 2.0
23/02:30am 12.1 6.2 11.3 95 0.4 NW 33 43 18 23 1004.7 1004.7 1.4
23/02:00am 12.2 5.6 11.3 94 0.5 WNW 37 48 20 26 1004.1 1004.1 0.8
23/01:30am 12.7 4.2 10.8 88 1.0 NW 46 65 25 35 1003.2 1003.2 0.8
23/01:25am 15.0 9.5 12.0 82 1.6 N 32 61 17 33 1002.9 1002.9 0.4
23/01:09am 15.3 10.8 12.6 84 1.5 N 28 46 15 25 1001.8 1001.8 0.4
23/01:00am 15.0 10.5 12.5 85 1.4 N 28 41 15 22 1002.0 1002.0 0.4
23/12:30am 14.5 10.0 12.7 89 1.0 N 28 41 15 22 1002.8 1002.8 0.4
23/12:00am 14.5 10.1 12.9 90 0.9 N 28 43 15 23 1003.6 1003.6 0.2
 
Date/Time
EST
Temp
°C
App
Temp
°C
Dew
Point
Rel
Hum
%
Delta-T
°C
Wind Press
QNH
hPa
Press
MSL
hPa
Rain
since 9 am
mm
Dir
 
Spd
km/h
Gust
km/h
Spd
kts
Gust
kts
22/11:44pm 14.5 9.3 12.7 89 1.0 N 32 50 17 27 1004.1 1004.1 0.2
22/11:30pm 14.8 9.5 12.5 86 1.3 N 32 43 17 23 1004.5 1004.5 0.2
22/11:05pm 15.7 10.1 12.1 79 2.0 NNW 33 52 18 28 1004.9 1004.9 0.0
22/11:00pm 15.7 10.2 11.9 78 2.1 NNW 32 44 17 24 1004.9 1004.9 0.0
22/10:30pm 17.2 8.8 11.2 68 3.2 NNW 46 67 25 36 1005.1 1005.1 0.0
22/10:01pm 17.8 11.9 9.2 57 4.5 N 30 52 16 28 1005.3 1005.3 0.0
22/10:00pm 17.7 12.2 9.1 57 4.5 N 28 41 15 22 1005.3 1005.3 0.0
22/09:30pm 17.9 11.2 8.2 53 5.0 N 33 48 18 26 1005.3 1005.3 0.0
22/09:00pm 17.8 10.3 7.8 52 5.1 N 37 56 20 30 1005.7 1005.7 0.0
22/08:42pm 17.5 10.7 7.8 53 4.9 N 33 52 18 28 1005.8 1005.8 0.0
22/08:30pm 17.2 10.6 7.8 54 4.8 NNE 32 46 17 25 1006.0 1006.0 0.0
22/08:06pm 16.6 10.0 7.8 56 4.4 NNE 32 50 17 27 1006.2 1006.2 0.0
22/08:00pm 16.6 9.8 7.5 55 4.6 NNE 33 50 18 27 1006.1 1006.1 0.0
22/07:30pm 16.2 11.0 7.4 56 4.4 NNE 24 35 13 19 1006.4 1006.4 0.0
22/07:00pm 16.9 10.1 7.0 52 4.9 NNE 32 48 17 26 1006.4 1006.4 0.0
22/06:30pm 16.8 10.0 6.9 52 4.9 N 32 46 17 25 1006.6 1006.6 0.0
22/06:00pm 17.2 9.9 7.3 52 5.0 N 35 61 19 33 1007.2 1007.2 0.0
22/05:53pm 17.4 10.1 7.2 51 5.1 N 35 61 19 33 1007.4 1007.5 0.0
22/05:30pm 17.4 10.1 7.2 51 5.1 N 35 50 19 27 1007.6 1007.7 0.0
22/05:11pm 17.8 10.5 7.0 49 5.4 N 35 54 19 29 1007.7 1007.8 0.0
22/05:00pm 17.8 10.8 7.0 49 5.4 N 33 46 18 25 1007.9 1007.9 0.0
22/04:34pm 18.3 10.8 6.5 46 5.9 N 35 54 19 29 1008.1 1008.2 0.0
22/04:30pm 18.1 10.7 6.6 47 5.7 N 35 50 19 27 1008.2 1008.3 0.0
22/04:02pm 18.4 11.9 6.6 46 5.9 N 30 54 16 29 1008.3 1008.4 0.0
22/04:00pm 18.1 11.9 6.3 46 5.8 N 28 39 15 21 1008.4 1008.4 0.0
22/03:30pm 18.5 12.3 6.0 44 6.2 N 28 43 15 23 1008.5 1008.6 0.0
22/03:00pm 19.1 12.0 5.6 41 6.6 N 32 46 17 25 1008.6 1008.6 0.0
22/02:30pm 19.0 12.5 6.5 44 6.2 N 30 41 16 22 1009.1 1009.2 0.0
22/02:00pm 18.5 16.1 8.7 53 5.1 NNW 11 28 6 15 1009.5 1009.5 0.0
22/01:30pm 18.6 17.2 9.7 56 4.7 NNW 7 11 4 6 1009.9 1010.0 0.0
22/01:00pm 18.7 16.1 9.5 55 4.9 N 13 24 7 13 1010.4 1010.4 0.0
22/12:30pm 18.8 17.0 9.3 54 5.0 NNW 9 13 5 7 1010.8 1010.9 0.0
22/12:00pm 18.0 14.1 8.8 55 4.8 N 19 26 10 14 1011.0 1011.0 0.0

Other Formats:

Comma delimited format used in spreadsheet applications
http://www.bom.gov.au/fwo/IDT60801/IDT60801.95961.axf

JavaScript Object Notation format (JSON) in row-major order
http://www.bom.gov.au/fwo/IDT60801/IDT60801.95961.json